Virgo Phoenix — 3FMO8 — position and weather

sailwx.info

Track history (hours):
 
Tides and Currents Weather Stations Pressure Air Temp Water Temp Dewpoint Dewpoint Depression Visibility Wind Speed Wind Dir Waves Ship Positions

Virgo Phoenix

Last reported at 2014-Jul-22 23:33 UTC. Time now 2014-Jul-24 23:05 UTC.
Position N 36°01' E 120°22'.

Length 96 m; draft 5.5 m.

Type: Ship (hazmat cat B). MMSI: 370795000.

Date/timePositionNaut miles runAvg speedWind from/ knotsBaromVisibWave heightAir tempDewpointWater temp
2014-Jul-22 23:33N 36°01' E 120°22'1 0.1
2014-Jul-22 10:13N 36°01' E 120°21'7 9.8
2014-Jul-22 09:32N 35°60' E 120°30'  
2014-Jul-19 15:05N 35°39' E 120°55'713.8
2014-Jul-19 14:33N 35°32' E 120°56'2512.2
2014-Jul-19 12:31N 35°12' E 120°37'1313.6
2014-Jul-19 11:33N 35°06' E 120°23'1313.2
2014-Jul-19 10:33N 35°03' E 120°07'1413.6
2014-Jul-19 09:33N 35°04' E 119°51'1313.3
2014-Jul-19 08:33N 35°03' E 119°35'10 9.9
2014-Jul-19 07:33N 35°06' E 119°23'0 0.1
2014-Jul-19 06:29N 35°06' E 119°23'0 0.0
2014-Jul-19 02:29N 35°06' E 119°23'0 0.0
2014-Jul-18 20:17N 35°06' E 119°23'0 0.0
2014-Jul-18 19:23N 35°06' E 119°23'0 0.0
2014-Jul-18 18:29N 35°06' E 119°23'0 0.1
2014-Jul-18 15:33N 35°06' E 119°24'10 9.8
2014-Jul-18 14:32N 35°03' E 119°35'3 2.2
2014-Jul-18 13:06N 35°05' E 119°38'0 0.0
2014-Jul-18 12:18N 35°05' E 119°38'0 0.0
2014-Jul-18 11:24N 35°05' E 119°38'0 0.1
2014-Jul-18 10:30N 35°05' E 119°38'0 0.0
2014-Jul-18 09:30N 35°05' E 119°38'0 0.0
2014-Jul-18 08:30N 35°05' E 119°38'0 0.0
2014-Jul-18 07:30N 35°05' E 119°38'0 0.0
2014-Jul-18 06:24N 35°05' E 119°38'0 0.0
2014-Jul-18 04:30N 35°05' E 119°38'0 0.0
2014-Jul-18 03:24N 35°05' E 119°38'0 0.1
2014-Jul-18 02:30N 35°05' E 119°38'0 0.0
2014-Jul-18 01:24N 35°05' E 119°38'0 0.0
2014-Jul-18 00:24N 35°05' E 119°38'0 0.1
2014-Jul-17 23:30N 35°05' E 119°38'0 0.0
2014-Jul-17 22:18N 35°05' E 119°38'0 0.1
2014-Jul-17 20:24N 35°05' E 119°38'0 0.0
2014-Jul-17 19:30N 35°05' E 119°38'0 0.0
2014-Jul-17 18:30N 35°05' E 119°38'0 0.0
2014-Jul-17 17:30N 35°05' E 119°38'0 0.0
2014-Jul-17 16:30N 35°05' E 119°38'0 0.0
2014-Jul-17 14:24N 35°05' E 119°38'0 0.0
2014-Jul-17 13:24N 35°05' E 119°38'0 0.0
2014-Jul-17 12:24N 35°05' E 119°38'0 0.0
2014-Jul-17 11:30N 35°05' E 119°38'0 0.0
2014-Jul-17 10:18N 35°05' E 119°38'0 0.0
2014-Jul-17 09:24N 35°05' E 119°38'0 0.1
2014-Jul-17 08:30N 35°05' E 119°38'0 0.0
2014-Jul-17 07:30N 35°05' E 119°38'0 0.0
2014-Jul-17 05:24N 35°05' E 119°38'0 0.0
2014-Jul-17 04:24N 35°05' E 119°38'0 0.1
2014-Jul-17 03:24N 35°05' E 119°38'0 0.0
2014-Jul-17 02:18N 35°05' E 119°38'0 0.0
2014-Jul-17 01:30N 35°05' E 119°38'0 0.0
2014-Jul-17 00:30N 35°05' E 119°38'0 0.0
2014-Jul-16 23:24N 35°05' E 119°38'0 0.1
2014-Jul-16 22:30N 35°05' E 119°38'0 0.1
2014-Jul-16 21:30N 35°05' E 119°38'0 0.1
2014-Jul-16 20:24N 35°05' E 119°38'1 1.0
2014-Jul-16 19:33N 35°05' E 119°39'1312.6
2014-Jul-16 18:33N 35°03' E 119°54'27610.6
2014-Jul-15 16:24N 30°59' E 122°30'4110.7
2014-Jul-15 12:31N 31°16' E 121°45'1212.4
2014-Jul-15 11:32N 31°24' E 121°34'9 9.6
2014-Jul-15 10:34N 31°29' E 121°26'2812.7
2014-Jul-15 08:20N 31°47' E 120°59'810.8
2014-Jul-15 07:33N 31°53' E 120°53'1111.3
2014-Jul-15 06:33N 32°00' E 120°43'1212.0
2014-Jul-15 05:33N 32°04' E 120°29'1312.6
2014-Jul-15 04:34N 31°57' E 120°17'1312.6
2014-Jul-15 03:33N 31°58' E 120°02'0 0.2
2014-Jul-15 02:29N 31°57' E 120°02'0 0.0
2014-Jul-15 01:29N 31°57' E 120°02'0 0.0
2014-Jul-15 00:23N 31°57' E 120°02'0 0.0
2014-Jul-14 23:05N 31°57' E 120°02'0 0.0
2014-Jul-14 22:17N 31°57' E 120°02'0 0.0
2014-Jul-14 21:12N 31°57' E 120°02'0 0.0
2014-Jul-14 20:24N 31°57' E 120°02'0 0.0
2014-Jul-14 19:29N 31°57' E 120°02'0 0.0
2014-Jul-14 18:30N 31°57' E 120°02'0 0.0
2014-Jul-14 17:30N 31°57' E 120°02'0 0.0
2014-Jul-14 16:30N 31°57' E 120°02'0 0.0
2014-Jul-14 15:24N 31°57' E 120°02'0 0.0
2014-Jul-14 14:17N 31°57' E 120°02'0 0.0
2014-Jul-14 13:24N 31°57' E 120°02'0 0.0
2014-Jul-14 11:05N 31°57' E 120°02'0 0.1
2014-Jul-14 07:30N 31°57' E 120°03'8 8.3
2014-Jul-14 06:34N 31°56' E 120°12'10 9.5
2014-Jul-14 05:33N 31°58' E 120°23'3 3.5
2014-Jul-14 04:33N 31°58' E 120°27'0 0.0
2014-Jul-14 03:34N 31°58' E 120°27'0 0.0
2014-Jul-14 02:27N 31°58' E 120°27'0 0.0
2014-Jul-14 01:34N 31°58' E 120°27'0 0.0
2014-Jul-14 00:33N 31°58' E 120°27'0 0.0
2014-Jul-13 23:33N 31°58' E 120°27'0 0.0
2014-Jul-13 22:33N 31°58' E 120°27'0 0.0
2014-Jul-13 21:33N 31°58' E 120°27'0 0.0
2014-Jul-13 20:33N 31°58' E 120°27'0 0.0
2014-Jul-13 19:30N 31°58' E 120°27'0 0.0
2014-Jul-13 18:33N 31°58' E 120°27'0 0.0
2014-Jul-13 17:33N 31°58' E 120°27'0 0.0
2014-Jul-13 16:33N 31°58' E 120°27'0 0.0
2014-Jul-13 15:33N 31°58' E 120°27'0 0.0
2014-Jul-13 14:33N 31°58' E 120°27'0 0.0
2014-Jul-13 13:33N 31°58' E 120°27'0 0.0
2014-Jul-13 12:34N 31°58' E 120°27'5 4.7
2014-Jul-13 11:33N 32°02' E 120°31'1010.1
2014-Jul-13 10:33N 32°00' E 120°42'9 8.6
2014-Jul-13 09:33N 31°57' E 120°52'1111.0
2014-Jul-13 08:33N 31°47' E 120°57'2411.9
2014-Jul-13 06:32N 31°33' E 121°20'1111.0
2014-Jul-13 05:33N 31°26' E 121°30'9 9.1
2014-Jul-13 04:33N 31°21' E 121°39'  
Track history (hours):
 
Tides and Currents Weather Stations Pressure Air Temp Water Temp Dewpoint Dewpoint Depression Visibility Wind Speed Wind Dir Waves Ship Positions

Virgo Phoenix

Last reported at 2014-Jul-22 23:33 UTC. Time now 2014-Jul-24 23:05 UTC.
Position N 36°01' E 120°22'.

Length 96 m; draft 5.5 m.

Type: Ship (hazmat cat B). MMSI: 370795000.

Date/timePositionNaut miles runAvg speedWind from/ knotsBaromVisibWave heightAir tempDewpointWater temp
2014-Jul-22 23:33N 36°01' E 120°22'1 0.1
2014-Jul-22 10:13N 36°01' E 120°21'7 9.8
2014-Jul-22 09:32N 35°60' E 120°30'  
2014-Jul-19 15:05N 35°39' E 120°55'713.8
2014-Jul-19 14:33N 35°32' E 120°56'2512.2
2014-Jul-19 12:31N 35°12' E 120°37'1313.6
2014-Jul-19 11:33N 35°06' E 120°23'1313.2
2014-Jul-19 10:33N 35°03' E 120°07'1413.6
2014-Jul-19 09:33N 35°04' E 119°51'1313.3
2014-Jul-19 08:33N 35°03' E 119°35'10 9.9
2014-Jul-19 07:33N 35°06' E 119°23'0 0.1
2014-Jul-19 06:29N 35°06' E 119°23'0 0.0
2014-Jul-19 02:29N 35°06' E 119°23'0 0.0
2014-Jul-18 20:17N 35°06' E 119°23'0 0.0
2014-Jul-18 19:23N 35°06' E 119°23'0 0.0
2014-Jul-18 18:29N 35°06' E 119°23'0 0.1
2014-Jul-18 15:33N 35°06' E 119°24'10 9.8
2014-Jul-18 14:32N 35°03' E 119°35'3 2.2
2014-Jul-18 13:06N 35°05' E 119°38'0 0.0
2014-Jul-18 12:18N 35°05' E 119°38'0 0.0
2014-Jul-18 11:24N 35°05' E 119°38'0 0.1
2014-Jul-18 10:30N 35°05' E 119°38'0 0.0
2014-Jul-18 09:30N 35°05' E 119°38'0 0.0
2014-Jul-18 08:30N 35°05' E 119°38'0 0.0
2014-Jul-18 07:30N 35°05' E 119°38'0 0.0
2014-Jul-18 06:24N 35°05' E 119°38'0 0.0
2014-Jul-18 04:30N 35°05' E 119°38'0 0.0
2014-Jul-18 03:24N 35°05' E 119°38'0 0.1
2014-Jul-18 02:30N 35°05' E 119°38'0 0.0
2014-Jul-18 01:24N 35°05' E 119°38'0 0.0
2014-Jul-18 00:24N 35°05' E 119°38'0 0.1
2014-Jul-17 23:30N 35°05' E 119°38'0 0.0
2014-Jul-17 22:18N 35°05' E 119°38'0 0.1
2014-Jul-17 20:24N 35°05' E 119°38'0 0.0
2014-Jul-17 19:30N 35°05' E 119°38'0 0.0
2014-Jul-17 18:30N 35°05' E 119°38'0 0.0
2014-Jul-17 17:30N 35°05' E 119°38'0 0.0
2014-Jul-17 16:30N 35°05' E 119°38'0 0.0
2014-Jul-17 14:24N 35°05' E 119°38'0 0.0
2014-Jul-17 13:24N 35°05' E 119°38'0 0.0
2014-Jul-17 12:24N 35°05' E 119°38'0 0.0
2014-Jul-17 11:30N 35°05' E 119°38'0 0.0
2014-Jul-17 10:18N 35°05' E 119°38'0 0.0
2014-Jul-17 09:24N 35°05' E 119°38'0 0.1
2014-Jul-17 08:30N 35°05' E 119°38'0 0.0
2014-Jul-17 07:30N 35°05' E 119°38'0 0.0
2014-Jul-17 05:24N 35°05' E 119°38'0 0.0
2014-Jul-17 04:24N 35°05' E 119°38'0 0.1
2014-Jul-17 03:24N 35°05' E 119°38'0 0.0
2014-Jul-17 02:18N 35°05' E 119°38'0 0.0
2014-Jul-17 01:30N 35°05' E 119°38'0 0.0
2014-Jul-17 00:30N 35°05' E 119°38'0 0.0
2014-Jul-16 23:24N 35°05' E 119°38'0 0.1
2014-Jul-16 22:30N 35°05' E 119°38'0 0.1
2014-Jul-16 21:30N 35°05' E 119°38'0 0.1
2014-Jul-16 20:24N 35°05' E 119°38'1 1.0
2014-Jul-16 19:33N 35°05' E 119°39'1312.6
2014-Jul-16 18:33N 35°03' E 119°54'27610.6
2014-Jul-15 16:24N 30°59' E 122°30'4110.7
2014-Jul-15 12:31N 31°16' E 121°45'1212.4
2014-Jul-15 11:32N 31°24' E 121°34'9 9.6
2014-Jul-15 10:34N 31°29' E 121°26'2812.7
2014-Jul-15 08:20N 31°47' E 120°59'810.8
2014-Jul-15 07:33N 31°53' E 120°53'1111.3
2014-Jul-15 06:33N 32°00' E 120°43'1212.0
2014-Jul-15 05:33N 32°04' E 120°29'1312.6
2014-Jul-15 04:34N 31°57' E 120°17'1312.6
2014-Jul-15 03:33N 31°58' E 120°02'0 0.2
2014-Jul-15 02:29N 31°57' E 120°02'0 0.0
2014-Jul-15 01:29N 31°57' E 120°02'0 0.0
2014-Jul-15 00:23N 31°57' E 120°02'0 0.0
2014-Jul-14 23:05N 31°57' E 120°02'0 0.0
2014-Jul-14 22:17N 31°57' E 120°02'0 0.0
2014-Jul-14 21:12N 31°57' E 120°02'0 0.0
2014-Jul-14 20:24N 31°57' E 120°02'0 0.0
2014-Jul-14 19:29N 31°57' E 120°02'0 0.0
2014-Jul-14 18:30N 31°57' E 120°02'0 0.0
2014-Jul-14 17:30N 31°57' E 120°02'0 0.0
2014-Jul-14 16:30N 31°57' E 120°02'0 0.0
2014-Jul-14 15:24N 31°57' E 120°02'0 0.0
2014-Jul-14 14:17N 31°57' E 120°02'0 0.0
2014-Jul-14 13:24N 31°57' E 120°02'0 0.0
2014-Jul-14 11:05N 31°57' E 120°02'0 0.1
2014-Jul-14 07:30N 31°57' E 120°03'8 8.3
2014-Jul-14 06:34N 31°56' E 120°12'10 9.5
2014-Jul-14 05:33N 31°58' E 120°23'3 3.5
2014-Jul-14 04:33N 31°58' E 120°27'0 0.0
2014-Jul-14 03:34N 31°58' E 120°27'0 0.0
2014-Jul-14 02:27N 31°58' E 120°27'0 0.0
2014-Jul-14 01:34N 31°58' E 120°27'0 0.0
2014-Jul-14 00:33N 31°58' E 120°27'0 0.0
2014-Jul-13 23:33N 31°58' E 120°27'0 0.0
2014-Jul-13 22:33N 31°58' E 120°27'0 0.0
2014-Jul-13 21:33N 31°58' E 120°27'0 0.0
2014-Jul-13 20:33N 31°58' E 120°27'0 0.0
2014-Jul-13 19:30N 31°58' E 120°27'0 0.0
2014-Jul-13 18:33N 31°58' E 120°27'0 0.0
2014-Jul-13 17:33N 31°58' E 120°27'0 0.0
2014-Jul-13 16:33N 31°58' E 120°27'0 0.0
2014-Jul-13 15:33N 31°58' E 120°27'0 0.0
2014-Jul-13 14:33N 31°58' E 120°27'0 0.0
2014-Jul-13 13:33N 31°58' E 120°27'0 0.0
2014-Jul-13 12:34N 31°58' E 120°27'5 4.7
2014-Jul-13 11:33N 32°02' E 120°31'1010.1
2014-Jul-13 10:33N 32°00' E 120°42'9 8.6
2014-Jul-13 09:33N 31°57' E 120°52'1111.0
2014-Jul-13 08:33N 31°47' E 120°57'2411.9
2014-Jul-13 06:32N 31°33' E 121°20'1111.0
2014-Jul-13 05:33N 31°26' E 121°30'9 9.1
2014-Jul-13 04:33N 31°21' E 121°39'  

Dump ship's entire track history